createdAt,value
2018-04-25T00:00:09.722Z,10.27
2018-04-25T00:02:39.164Z,13.67
2018-04-25T00:05:08.525Z,10.90
2018-04-25T00:07:37.929Z,11.13
2018-04-25T00:10:07.433Z,10.13
2018-04-25T00:12:36.849Z,12.37
2018-04-25T00:15:06.078Z,8.93
2018-04-25T00:17:35.289Z,11.70
2018-04-25T00:20:04.622Z,15.10
2018-04-25T00:22:33.827Z,11.03
2018-04-25T00:25:03.061Z,12.63
2018-04-25T00:27:32.394Z,10.57
2018-04-25T00:30:01.599Z,10.97
2018-04-25T00:32:30.848Z,10.90
2018-04-25T00:35:00.237Z,9.70
2018-04-25T00:37:29.653Z,12.47
2018-04-25T00:39:59.603Z,11.67
2018-04-25T00:42:28.878Z,12.57
2018-04-25T00:44:58.285Z,12.00
2018-04-25T00:47:27.588Z,10.20
2018-04-25T00:49:57.666Z,10.50
2018-04-25T00:52:26.945Z,11.83
2018-04-25T00:54:56.948Z,10.27
2018-04-25T00:57:26.695Z,10.83
2018-04-25T00:59:57.533Z,12.97
2018-04-25T01:02:26.835Z,12.23
2018-04-25T01:04:56.264Z,12.57
2018-04-25T01:07:26.358Z,12.87
2018-04-25T01:09:55.581Z,11.30
2018-04-25T01:12:24.761Z,11.00
2018-04-25T01:14:54.014Z,11.30
2018-04-25T01:17:24.240Z,11.37
2018-04-25T01:19:53.774Z,12.53
2018-04-25T01:22:23.182Z,12.37
2018-04-25T01:25:02.980Z,12.40
2018-04-25T01:27:33.765Z,13.10
2018-04-25T01:30:02.965Z,13.37
2018-04-25T01:32:35.332Z,16.13
2018-04-25T01:35:04.604Z,13.67
2018-04-25T01:37:35.773Z,15.87
2018-04-25T01:40:06.553Z,12.97
2018-04-25T01:42:43.516Z,14.67
2018-04-25T01:45:24.301Z,13.20
2018-04-25T01:47:59.148Z,18.47
2018-04-25T01:50:39.115Z,14.67
2018-04-25T01:53:20.127Z,14.53
2018-04-25T01:56:07.027Z,14.93
2018-04-25T01:58:54.262Z,11.63
2018-04-25T02:01:29.081Z,13.63
2018-04-25T02:03:59.915Z,13.10
2018-04-25T02:06:29.675Z,15.43
2018-04-25T02:08:59.640Z,13.00
2018-04-25T02:11:28.992Z,17.13
2018-04-25T02:14:00.220Z,16.90
2018-04-25T02:16:29.585Z,16.93
2018-04-25T02:18:58.875Z,15.87
2018-04-25T02:21:28.081Z,17.20
2018-04-25T02:23:57.286Z,14.17
2018-04-25T02:26:26.793Z,13.93
2018-04-25T02:28:55.992Z,15.83
2018-04-25T02:31:25.272Z,15.33
2018-04-25T02:33:54.510Z,15.17
2018-04-25T02:36:23.754Z,14.93
2018-04-25T02:38:52.985Z,16.60
2018-04-25T02:41:22.175Z,16.47
2018-04-25T02:43:51.583Z,19.87
2018-04-25T02:46:20.871Z,18.97
2018-04-25T02:48:50.130Z,20.23
2018-04-25T02:51:19.398Z,19.93
2018-04-25T02:53:48.594Z,24.10
2018-04-25T02:56:21.409Z,18.60
2018-04-25T02:58:51.638Z,16.27
2018-04-25T03:01:28.472Z,16.60
2018-04-25T03:03:57.684Z,17.40
2018-04-25T03:06:27.071Z,15.80
2018-04-25T03:08:56.320Z,18.43
2018-04-25T03:11:26.286Z,19.97
2018-04-25T03:13:55.530Z,22.07
2018-04-25T03:16:25.693Z,20.47
2018-04-25T03:18:54.950Z,19.73
2018-04-25T03:21:25.012Z,23.27
2018-04-25T03:23:54.275Z,19.90
2018-04-25T03:26:23.473Z,19.43
2018-04-25T03:28:52.745Z,22.03
2018-04-25T03:31:22.213Z,20.33
2018-04-25T03:33:51.512Z,23.07
2018-04-25T03:36:20.912Z,21.83
2018-04-25T03:38:50.110Z,18.73
2018-04-25T03:41:19.410Z,18.67
2018-04-25T03:43:48.676Z,21.13
2018-04-25T03:46:18.640Z,19.03
2018-04-25T03:48:47.835Z,21.83
2018-04-25T03:51:17.149Z,21.93
2018-04-25T03:53:46.481Z,21.20
2018-04-25T03:56:15.758Z,20.13
2018-04-25T03:58:44.975Z,23.60
2018-04-25T04:01:15.069Z,23.83
2018-04-25T04:03:44.308Z,22.93
2018-04-25T04:06:13.742Z,20.97
2018-04-25T04:08:42.988Z,19.73
2018-04-25T04:11:13.016Z,22.93
2018-04-25T04:13:43.181Z,19.63
2018-04-25T04:16:12.583Z,20.37
2018-04-25T04:18:41.883Z,20.93
2018-04-25T04:21:11.082Z,20.53
2018-04-25T04:23:40.381Z,21.80
2018-04-25T04:26:09.783Z,19.33
2018-04-25T04:28:40.155Z,17.27
2018-04-25T04:31:09.404Z,16.97
2018-04-25T04:33:38.708Z,16.93
2018-04-25T04:36:07.917Z,16.63
2018-04-25T04:38:37.156Z,16.53
2018-04-25T04:41:07.329Z,19.67
2018-04-25T04:43:36.601Z,19.90
2018-04-25T04:46:05.871Z,18.20
2018-04-25T04:48:35.124Z,19.73
2018-04-25T04:51:04.512Z,20.07
2018-04-25T04:53:33.836Z,19.37
2018-04-25T04:56:03.134Z,17.80
2018-04-25T04:58:32.347Z,16.50
2018-04-25T05:01:01.637Z,19.00
2018-04-25T05:03:31.130Z,19.57
2018-04-25T05:06:00.429Z,18.97
2018-04-25T05:08:29.867Z,20.33
2018-04-25T05:10:59.828Z,18.33
2018-04-25T05:13:28.998Z,17.53
2018-04-25T05:15:58.262Z,15.27
2018-04-25T05:18:27.554Z,17.03
2018-04-25T05:20:56.968Z,19.23
2018-04-25T05:23:26.180Z,19.90
2018-04-25T05:25:55.548Z,15.70
2018-04-25T05:28:24.760Z,17.43
2018-04-25T05:30:53.954Z,14.77
2018-04-25T05:33:23.205Z,15.97
2018-04-25T05:35:53.219Z,15.93
2018-04-25T05:38:22.462Z,18.53
2018-04-25T05:40:51.663Z,16.93
2018-04-25T05:43:21.006Z,17.43
2018-04-25T05:45:50.209Z,13.73
2018-04-25T05:48:19.557Z,18.13
2018-04-25T05:50:48.720Z,15.07
2018-04-25T05:53:18.057Z,15.53
2018-04-25T05:55:47.323Z,16.67
2018-04-25T05:58:16.576Z,14.20
2018-04-25T06:00:45.889Z,16.63
2018-04-25T06:03:15.177Z,18.63
2018-04-25T06:05:44.356Z,14.73
2018-04-25T06:08:13.649Z,14.80
2018-04-25T06:10:42.860Z,16.77
2018-04-25T06:13:12.136Z,14.47
2018-04-25T06:15:41.756Z,15.83
2018-04-25T06:18:10.996Z,17.43
2018-04-25T06:20:40.213Z,17.00
2018-04-25T06:23:09.558Z,14.97
2018-04-25T06:25:38.808Z,17.17
2018-04-25T06:28:08.118Z,15.00
2018-04-25T06:30:37.387Z,15.63
2018-04-25T06:33:06.858Z,16.63
2018-04-25T06:35:36.118Z,13.43
2018-04-25T06:38:05.398Z,13.70
2018-04-25T06:40:34.576Z,14.20
2018-04-25T06:43:03.900Z,14.77
2018-04-25T06:45:33.898Z,13.83
2018-04-25T06:48:03.085Z,11.37
2018-04-25T06:50:32.305Z,9.63
2018-04-25T06:53:01.671Z,12.77
2018-04-25T06:55:30.841Z,11.27
2018-04-25T06:58:00.273Z,12.63
2018-04-25T07:00:29.502Z,12.30
2018-04-25T07:02:59.479Z,10.57
2018-04-25T07:05:28.792Z,11.13
2018-04-25T07:07:58.123Z,10.23
2018-04-25T07:10:27.386Z,11.90
2018-04-25T07:12:56.713Z,11.10
2018-04-25T07:15:26.753Z,11.20
2018-04-25T07:17:56.677Z,9.77
2018-04-25T07:20:26.670Z,12.80
2018-04-25T07:22:56.651Z,8.97
2018-04-25T07:25:25.907Z,11.23
2018-04-25T07:27:55.112Z,11.00
2018-04-25T07:30:24.401Z,10.17
2018-04-25T07:32:54.376Z,11.53
2018-04-25T07:35:23.678Z,10.07
2018-04-25T07:37:53.682Z,9.67
2018-04-25T07:40:23.029Z,9.90
2018-04-25T07:42:52.189Z,9.00
2018-04-25T07:45:21.398Z,10.43
2018-04-25T07:47:50.799Z,11.77
2018-04-25T07:50:20.401Z,9.87
2018-04-25T07:52:49.709Z,11.30
2018-04-25T07:55:19.004Z,10.60
2018-04-25T07:57:48.573Z,8.17
2018-04-25T08:00:21.892Z,9.63
2018-04-25T08:02:51.305Z,11.67
2018-04-25T08:05:20.589Z,8.33
2018-04-25T08:07:49.817Z,10.93
2018-04-25T08:10:22.271Z,9.83
2018-04-25T08:13:03.383Z,11.13
2018-04-25T08:15:44.547Z,11.20
2018-04-25T08:18:26.463Z,8.17
2018-04-25T08:24:04.179Z,8.80
2018-04-25T08:26:33.537Z,9.53
2018-04-25T08:29:02.799Z,11.27
2018-04-25T08:31:32.151Z,8.83
2018-04-25T08:34:02.172Z,9.43
2018-04-25T08:36:31.648Z,11.00
2018-04-25T08:39:01.190Z,10.87
2018-04-25T08:41:30.486Z,7.87
2018-04-25T08:44:00.558Z,11.13
2018-04-25T08:46:29.844Z,9.63
2018-04-25T08:48:59.062Z,11.90
2018-04-25T08:51:28.287Z,11.93
2018-04-25T08:53:57.562Z,10.70
2018-04-25T08:56:26.792Z,9.03
2018-04-25T08:58:56.196Z,11.27
2018-04-25T09:01:25.493Z,14.53
2018-04-25T09:03:54.859Z,10.87
2018-04-25T09:06:24.177Z,8.20
2018-04-25T09:08:53.369Z,8.67
2018-04-25T09:11:22.545Z,7.17
2018-04-25T09:13:51.872Z,8.07
2018-04-25T09:16:21.275Z,11.67
2018-04-25T09:18:50.499Z,9.83
2018-04-25T09:21:20.444Z,9.50
2018-04-25T09:23:50.355Z,14.43
2018-04-25T09:26:19.488Z,12.30
2018-04-25T09:28:48.747Z,8.57
2018-04-25T09:31:18.006Z,13.07
2018-04-25T09:33:47.301Z,12.57
2018-04-25T09:36:16.585Z,7.80
2018-04-25T09:38:45.794Z,9.83
2018-04-25T09:41:15.301Z,11.00
2018-04-25T09:43:45.412Z,9.67
2018-04-25T09:46:14.616Z,8.73
2018-04-25T09:48:43.897Z,12.93
2018-04-25T09:51:13.117Z,10.50
2018-04-25T09:53:42.313Z,10.37
2018-04-25T09:56:12.433Z,7.00
2018-04-25T09:58:41.704Z,8.20
2018-04-25T10:01:10.977Z,11.03
2018-04-25T10:03:44.025Z,12.13
2018-04-25T10:06:13.528Z,10.50
2018-04-25T10:08:42.662Z,9.90
2018-04-25T10:11:11.907Z,11.93
2018-04-25T10:13:41.117Z,12.47
2018-04-25T10:16:10.451Z,11.43
2018-04-25T10:18:39.661Z,13.13
2018-04-25T10:21:09.649Z,9.40
2018-04-25T10:23:38.838Z,15.13
2018-04-25T10:26:08.027Z,11.87
2018-04-25T10:28:37.207Z,9.50
2018-04-25T10:31:07.135Z,9.90
2018-04-25T10:33:36.290Z,10.10
2018-04-25T10:36:06.373Z,10.67
2018-04-25T10:38:35.669Z,13.23
2018-04-25T10:41:04.913Z,10.87
2018-04-25T10:43:34.221Z,10.13
2018-04-25T10:46:03.454Z,10.70
2018-04-25T10:48:32.796Z,12.07
2018-04-25T10:51:02.760Z,8.60
2018-04-25T10:53:31.963Z,8.17
2018-04-25T10:56:01.172Z,8.93
2018-04-25T10:58:30.536Z,8.07
2018-04-25T11:00:59.725Z,11.03
2018-04-25T11:03:29.887Z,11.27
2018-04-25T11:05:59.084Z,8.93
2018-04-25T11:08:28.237Z,10.70
2018-04-25T11:10:58.213Z,8.60
2018-04-25T11:13:27.600Z,7.30
2018-04-25T11:15:56.797Z,9.30
2018-04-25T11:18:26.190Z,9.03
2018-04-25T11:20:55.494Z,9.37
2018-04-25T11:23:24.698Z,11.87
2018-04-25T11:25:54.001Z,8.03
2018-04-25T11:28:23.299Z,7.50
2018-04-25T11:30:52.494Z,10.60
2018-04-25T11:33:21.796Z,8.87
2018-04-25T11:35:50.995Z,8.27
2018-04-25T11:38:20.214Z,7.97
2018-04-25T11:40:49.401Z,8.10
2018-04-25T11:43:18.578Z,7.23
2018-04-25T11:45:47.847Z,9.50
2018-04-25T11:48:21.396Z,10.03
2018-04-25T11:50:50.993Z,9.43
2018-04-25T11:53:20.241Z,5.93
2018-04-25T11:55:49.551Z,11.37
2018-04-25T11:58:19.711Z,6.67
2018-04-25T12:00:48.722Z,9.10
2018-04-25T12:03:18.077Z,9.33
2018-04-25T12:05:47.282Z,6.97
2018-04-25T12:08:17.217Z,6.70
2018-04-25T12:10:46.395Z,5.63
2018-04-25T12:13:15.768Z,4.57
2018-04-25T12:15:45.628Z,9.43
2018-04-25T12:18:14.906Z,5.37
2018-04-25T12:20:45.165Z,7.87
2018-04-25T12:23:14.404Z,8.20
2018-04-25T12:25:43.755Z,5.97
2018-04-25T12:28:12.953Z,7.80
2018-04-25T12:30:42.150Z,8.83
2018-04-25T12:33:11.332Z,5.73
2018-04-25T12:35:41.436Z,5.27
2018-04-25T12:38:10.667Z,4.73
2018-04-25T12:40:40.068Z,7.70
2018-04-25T12:43:09.232Z,11.07
2018-04-25T12:45:38.464Z,5.20
2018-04-25T12:48:07.692Z,5.60
2018-04-25T12:50:36.900Z,8.53
2018-04-25T12:53:06.108Z,5.53
2018-04-25T12:55:35.385Z,6.60
2018-04-25T12:58:04.634Z,7.40
2018-04-25T13:00:33.962Z,5.80
2018-04-25T13:03:03.259Z,6.83
2018-04-25T13:05:32.766Z,6.87
2018-04-25T13:08:02.063Z,4.93
2018-04-25T13:10:31.339Z,7.13
2018-04-25T13:13:00.748Z,7.30
2018-04-25T13:15:29.968Z,7.47
2018-04-25T13:17:59.271Z,7.93
2018-04-25T13:20:28.564Z,5.63
2018-04-25T13:22:57.969Z,4.70
2018-04-25T13:25:27.199Z,5.73
2018-04-25T13:27:57.087Z,5.67
2018-04-25T13:30:26.693Z,7.20
2018-04-25T13:32:56.636Z,5.37
2018-04-25T13:35:25.991Z,6.33
2018-04-25T13:37:55.262Z,7.70
2018-04-25T13:40:24.605Z,7.13
2018-04-25T13:42:53.677Z,10.43
2018-04-25T13:45:23.152Z,5.07
2018-04-25T13:47:52.480Z,7.80
2018-04-25T13:50:21.725Z,6.20
2018-04-25T13:52:50.923Z,6.90
2018-04-25T13:55:20.411Z,5.67
2018-04-25T13:57:49.661Z,4.33
2018-04-25T14:00:21.003Z,7.53
2018-04-25T14:02:50.357Z,7.57
2018-04-25T14:05:19.657Z,6.57
2018-04-25T14:07:48.955Z,4.67
2018-04-25T14:10:18.272Z,4.73
2018-04-25T14:12:47.465Z,5.93
2018-04-25T14:15:16.846Z,6.27
2018-04-25T14:17:46.053Z,5.13
2018-04-25T14:20:15.250Z,7.03
2018-04-25T14:22:46.410Z,6.77
2018-04-25T14:25:20.187Z,6.10
2018-04-25T14:27:49.477Z,6.30
2018-04-25T14:30:18.790Z,5.87
2018-04-25T14:32:50.924Z,5.10
2018-04-25T14:35:20.171Z,4.77
2018-04-25T14:37:49.354Z,6.90
2018-04-25T14:40:18.765Z,8.07
2018-04-25T14:42:48.079Z,6.33
2018-04-25T14:45:17.305Z,4.60
2018-04-25T14:47:46.527Z,5.00
2018-04-25T14:50:15.714Z,6.50
2018-04-25T14:52:44.880Z,7.80
2018-04-25T14:55:14.080Z,4.20
2018-04-25T14:57:43.266Z,6.93
2018-04-25T15:00:12.474Z,6.43
2018-04-25T15:02:41.684Z,6.37
2018-04-25T15:05:11.719Z,6.57
2018-04-25T15:07:41.693Z,5.43
2018-04-25T15:10:10.858Z,4.73
2018-04-25T15:12:40.156Z,7.53
2018-04-25T15:15:09.417Z,8.40
2018-04-25T15:17:42.147Z,7.27
2018-04-25T15:20:11.348Z,8.30
2018-04-25T15:22:40.817Z,6.63
2018-04-25T15:25:10.300Z,7.90
2018-04-25T15:27:39.577Z,5.40
2018-04-25T15:30:08.787Z,7.17
2018-04-25T15:32:37.955Z,7.33
2018-04-25T15:35:07.165Z,9.10
2018-04-25T15:37:36.416Z,6.03
2018-04-25T15:40:06.395Z,6.30
2018-04-25T15:42:35.679Z,7.27
2018-04-25T15:45:05.101Z,8.70
2018-04-25T15:47:35.202Z,6.93
2018-04-25T15:50:04.505Z,5.67
2018-04-25T15:52:34.716Z,6.20
2018-04-25T15:55:03.926Z,7.67
2018-04-25T15:57:36.212Z,5.80
2018-04-25T16:00:06.485Z,7.13
2018-04-25T16:02:35.688Z,5.97
2018-04-25T16:05:06.866Z,5.10
2018-04-25T16:07:36.079Z,6.73
2018-04-25T16:10:05.398Z,5.57
2018-04-25T16:12:34.747Z,5.47
2018-04-25T16:15:03.884Z,6.37
2018-04-25T16:17:33.207Z,2.97
2018-04-25T16:20:02.489Z,6.50
2018-04-25T16:22:31.955Z,3.87
2018-04-25T16:25:01.148Z,3.27
2018-04-25T16:27:30.358Z,4.60
2018-04-25T16:29:59.563Z,5.40
2018-04-25T16:32:28.771Z,6.23
2018-04-25T16:34:57.944Z,3.67
2018-04-25T16:37:27.133Z,6.87
2018-04-25T16:39:56.438Z,4.00
2018-04-25T16:42:25.652Z,4.53
2018-04-25T16:44:54.873Z,5.83
2018-04-25T16:47:24.179Z,3.53
2018-04-25T16:49:53.523Z,4.00
2018-04-25T16:52:22.722Z,6.13
2018-04-25T16:54:51.997Z,2.97
2018-04-25T16:57:21.414Z,4.03
2018-04-25T16:59:51.177Z,4.10
2018-04-25T17:02:20.377Z,3.40
2018-04-25T17:04:49.595Z,3.67
2018-04-25T17:07:19.060Z,4.93
2018-04-25T17:09:48.212Z,2.63
2018-04-25T17:12:18.248Z,4.67
2018-04-25T17:14:47.452Z,2.77
2018-04-25T17:17:17.124Z,4.27
2018-04-25T17:19:46.545Z,4.13
2018-04-25T17:22:15.759Z,2.23
2018-04-25T17:24:45.019Z,2.93
2018-04-25T17:27:15.008Z,2.37
2018-04-25T17:29:45.040Z,3.83
2018-04-25T17:32:15.375Z,3.03
2018-04-25T17:34:45.335Z,3.80
2018-04-25T17:37:14.628Z,2.70
2018-04-25T17:39:44.560Z,3.40
2018-04-25T17:42:13.755Z,2.80
2018-04-25T17:44:42.951Z,1.70
2018-04-25T17:47:18.142Z,3.10
2018-04-25T17:49:48.344Z,2.47
2018-04-25T17:52:17.741Z,3.40
2018-04-25T17:54:47.121Z,2.43
2018-04-25T17:57:16.627Z,3.20
2018-04-25T17:59:46.013Z,3.73
2018-04-25T18:02:15.520Z,2.17
2018-04-25T18:04:44.890Z,2.30
2018-04-25T18:07:14.374Z,2.10
2018-04-25T18:09:43.763Z,2.23
2018-04-25T18:12:13.052Z,2.40
2018-04-25T18:14:42.288Z,2.13
2018-04-25T18:17:12.385Z,2.23
2018-04-25T18:19:43.606Z,2.40
2018-04-25T18:22:12.843Z,3.10
2018-04-25T18:24:43.282Z,2.20
2018-04-25T18:27:13.423Z,3.83
2018-04-25T18:29:42.768Z,2.87
2018-04-25T18:32:16.586Z,3.57
2018-04-25T18:34:45.892Z,2.37
2018-04-25T18:37:15.246Z,3.10
2018-04-25T18:39:44.961Z,4.03
2018-04-25T18:42:14.392Z,2.10
2018-04-25T18:44:44.865Z,3.53
2018-04-25T18:47:14.209Z,4.80
2018-04-25T18:49:44.261Z,2.60
2018-04-25T18:52:14.307Z,2.63
2018-04-25T18:54:43.690Z,2.03
2018-04-25T18:57:14.143Z,4.50
2018-04-25T18:59:43.768Z,3.13
2018-04-25T19:02:13.068Z,3.57
2018-04-25T19:04:42.390Z,3.07
2018-04-25T19:07:12.516Z,3.53
2018-04-25T19:09:42.725Z,4.00
2018-04-25T19:12:11.956Z,3.43
2018-04-25T19:14:41.250Z,4.07
2018-04-25T19:17:10.513Z,4.37
2018-04-25T19:19:39.796Z,3.50
2018-04-25T19:22:09.024Z,6.60
2018-04-25T19:24:38.348Z,4.13
2018-04-25T19:27:07.698Z,6.00
2018-04-25T19:29:36.879Z,7.10
2018-04-25T19:32:06.249Z,5.97
2018-04-25T19:34:35.537Z,5.47
2018-04-25T19:37:06.856Z,3.87
2018-04-25T19:39:36.132Z,3.90
2018-04-25T19:42:05.523Z,3.80
2018-04-25T19:44:48.377Z,3.03
2018-04-25T19:47:17.466Z,4.23
2018-04-25T19:49:46.663Z,2.80
2018-04-25T19:52:15.855Z,3.03
2018-04-25T19:54:45.184Z,3.43
2018-04-25T19:57:14.524Z,2.67
2018-04-25T19:59:44.083Z,3.80
2018-04-25T20:02:14.298Z,2.77
2018-04-25T20:04:43.571Z,3.43
2018-04-25T20:07:12.990Z,2.80
2018-04-25T20:09:42.275Z,3.30
2018-04-25T20:12:11.507Z,5.43
2018-04-25T20:14:40.721Z,3.13
2018-04-25T20:17:10.000Z,4.20
2018-04-25T20:19:39.267Z,2.73
2018-04-25T20:22:09.948Z,2.40
2018-04-25T20:24:39.425Z,3.07
2018-04-25T20:27:09.165Z,2.30
2018-04-25T20:29:38.447Z,2.40
2018-04-25T20:32:07.623Z,2.70
2018-04-25T20:34:36.941Z,2.43
2018-04-25T20:37:06.121Z,2.40
2018-04-25T20:39:35.429Z,4.13
2018-04-25T20:42:04.817Z,2.90
2018-04-25T20:44:35.339Z,3.00
2018-04-25T20:47:04.679Z,5.23
2018-04-25T20:49:33.958Z,3.80
2018-04-25T20:52:03.261Z,2.90
2018-04-25T20:54:32.595Z,2.70
2018-04-25T20:57:01.898Z,2.53
2018-04-25T20:59:31.171Z,2.50
2018-04-25T21:02:00.351Z,3.30
2018-04-25T21:04:29.630Z,3.27
2018-04-25T21:06:59.558Z,2.70
2018-04-25T21:09:28.886Z,2.50
2018-04-25T21:11:58.073Z,3.47
2018-04-25T21:14:27.359Z,3.80
2018-04-25T21:16:56.680Z,2.50
2018-04-25T21:19:26.015Z,2.93
2018-04-25T21:21:56.049Z,4.03
2018-04-25T21:24:25.486Z,2.70
2018-04-25T21:26:54.757Z,2.17
2018-04-25T21:29:24.080Z,2.40
2018-04-25T21:31:56.990Z,2.50
2018-04-25T21:34:27.206Z,2.97
2018-04-25T21:36:57.670Z,2.70
2018-04-25T21:39:27.730Z,2.50
2018-04-25T21:41:57.065Z,3.27
2018-04-25T21:44:26.302Z,3.20
2018-04-25T21:46:55.607Z,2.40
2018-04-25T21:49:25.587Z,3.53
2018-04-25T21:51:54.905Z,2.50
2018-04-25T21:54:24.928Z,2.63
2018-04-25T21:56:54.178Z,2.60
2018-04-25T21:59:23.488Z,2.40
2018-04-25T22:01:52.678Z,3.07
2018-04-25T22:04:22.700Z,2.67
2018-04-25T22:06:51.944Z,2.53
2018-04-25T22:09:21.972Z,2.80
2018-04-25T22:11:51.300Z,3.53
2018-04-25T22:14:20.617Z,2.90
2018-04-25T22:16:49.816Z,2.90
2018-04-25T22:19:19.126Z,2.67
2018-04-25T22:21:48.329Z,3.77
2018-04-25T22:24:17.619Z,4.10
2018-04-25T22:26:46.745Z,2.70
2018-04-25T22:29:16.061Z,3.20
2018-04-25T22:31:45.442Z,3.53
2018-04-25T22:34:15.417Z,3.00
2018-04-25T22:36:45.964Z,2.67
2018-04-25T22:39:15.154Z,2.20
2018-04-25T22:41:44.435Z,2.10
2018-04-25T22:44:13.718Z,2.63
2018-04-25T22:46:42.948Z,1.80
2018-04-25T22:49:12.131Z,2.23
2018-04-25T22:51:41.413Z,1.67
2018-04-25T22:54:10.784Z,2.77
2018-04-25T22:56:40.215Z,2.00
2018-04-25T22:59:09.512Z,2.90
2018-04-25T23:01:39.916Z,2.90
2018-04-25T23:04:09.124Z,4.37
2018-04-25T23:06:39.242Z,2.50
2018-04-25T23:09:08.494Z,2.20
2018-04-25T23:11:37.773Z,2.40
2018-04-25T23:14:07.201Z,1.80
2018-04-25T23:16:36.451Z,2.27
2018-04-25T23:19:05.625Z,2.00
2018-04-25T23:21:34.833Z,2.07
2018-04-25T23:24:06.296Z,2.40
2018-04-25T23:26:35.804Z,1.63
2018-04-25T23:29:05.003Z,2.10
2018-04-25T23:31:34.184Z,1.63
2018-04-25T23:34:03.379Z,3.53
2018-04-25T23:36:32.605Z,1.80
2018-04-25T23:39:01.940Z,3.23
2018-04-25T23:41:31.253Z,1.77
2018-04-25T23:44:00.450Z,2.03
2018-04-25T23:46:29.640Z,2.80
2018-04-25T23:48:58.906Z,2.00
2018-04-25T23:51:28.147Z,1.97
2018-04-25T23:53:57.352Z,2.83
2018-04-25T23:56:26.536Z,3.93
2018-04-25T23:58:55.791Z,1.37
